sensor_id;sensor_type;location;lat;lon;timestamp;temperature;humidity
81136;DHT22;70622;50.886;3.890;2023-07-31T00:00:23;17.20;80.20
81136;DHT22;70622;50.886;3.890;2023-07-31T00:02:48;17.20;81.20
81136;DHT22;70622;50.886;3.890;2023-07-31T00:05:15;17.30;80.20
81136;DHT22;70622;50.886;3.890;2023-07-31T00:07:40;17.30;79.50
81136;DHT22;70622;50.886;3.890;2023-07-31T00:10:06;17.20;79.90
81136;DHT22;70622;50.886;3.890;2023-07-31T00:12:32;17.30;80.30
81136;DHT22;70622;50.886;3.890;2023-07-31T00:14:58;17.30;80.20
81136;DHT22;70622;50.886;3.890;2023-07-31T00:17:23;17.40;80.60
81136;DHT22;70622;50.886;3.890;2023-07-31T00:19:49;17.30;80.70
81136;DHT22;70622;50.886;3.890;2023-07-31T00:22:16;17.20;81.30
81136;DHT22;70622;50.886;3.890;2023-07-31T00:24:41;17.30;81.60
81136;DHT22;70622;50.886;3.890;2023-07-31T00:27:07;17.30;82.20
81136;DHT22;70622;50.886;3.890;2023-07-31T00:29:32;17.40;82.30
81136;DHT22;70622;50.886;3.890;2023-07-31T00:31:58;17.40;82.00
81136;DHT22;70622;50.886;3.890;2023-07-31T00:34:23;17.40;82.30
81136;DHT22;70622;50.886;3.890;2023-07-31T00:36:49;17.20;82.70
81136;DHT22;70622;50.886;3.890;2023-07-31T00:39:14;17.30;83.30
81136;DHT22;70622;50.886;3.890;2023-07-31T00:41:40;17.30;83.30
81136;DHT22;70622;50.886;3.890;2023-07-31T00:44:05;17.30;83.70
81136;DHT22;70622;50.886;3.890;2023-07-31T00:46:31;17.20;83.90
81136;DHT22;70622;50.886;3.890;2023-07-31T00:48:56;17.20;84.00
81136;DHT22;70622;50.886;3.890;2023-07-31T00:51:22;17.30;84.00
81136;DHT22;70622;50.886;3.890;2023-07-31T00:53:48;17.30;83.80
81136;DHT22;70622;50.886;3.890;2023-07-31T00:56:13;17.30;83.10
81136;DHT22;70622;50.886;3.890;2023-07-31T00:58:39;17.30;83.30
81136;DHT22;70622;50.886;3.890;2023-07-31T01:01:05;17.20;83.20
81136;DHT22;70622;50.886;3.890;2023-07-31T01:03:31;17.20;83.60
81136;DHT22;70622;50.886;3.890;2023-07-31T01:08:41;17.30;83.50
81136;DHT22;70622;50.886;3.890;2023-07-31T01:11:19;17.30;83.60
81136;DHT22;70622;50.886;3.890;2023-07-31T01:13:46;17.40;83.50
81136;DHT22;70622;50.886;3.890;2023-07-31T01:16:12;17.40;83.40
81136;DHT22;70622;50.886;3.890;2023-07-31T01:18:37;17.50;83.70
81136;DHT22;70622;50.886;3.890;2023-07-31T01:21:06;17.50;83.60
81136;DHT22;70622;50.886;3.890;2023-07-31T01:26:14;17.50;84.00
81136;DHT22;70622;50.886;3.890;2023-07-31T01:31:21;17.40;84.40
81136;DHT22;70622;50.886;3.890;2023-07-31T01:33:48;17.50;84.60
81136;DHT22;70622;50.886;3.890;2023-07-31T01:36:14;17.50;84.60
81136;DHT22;70622;50.886;3.890;2023-07-31T01:38:39;17.50;84.70
81136;DHT22;70622;50.886;3.890;2023-07-31T01:41:05;17.50;84.50
81136;DHT22;70622;50.886;3.890;2023-07-31T01:43:30;17.50;84.40
81136;DHT22;70622;50.886;3.890;2023-07-31T01:45:56;17.50;84.50
81136;DHT22;70622;50.886;3.890;2023-07-31T01:48:21;17.40;84.70
81136;DHT22;70622;50.886;3.890;2023-07-31T01:50:47;17.40;85.00
81136;DHT22;70622;50.886;3.890;2023-07-31T01:53:12;17.40;84.70
81136;DHT22;70622;50.886;3.890;2023-07-31T01:55:38;17.40;85.00
81136;DHT22;70622;50.886;3.890;2023-07-31T01:58:04;17.40;85.10
81136;DHT22;70622;50.886;3.890;2023-07-31T02:00:29;17.40;85.30
81136;DHT22;70622;50.886;3.890;2023-07-31T02:02:55;17.30;85.00
81136;DHT22;70622;50.886;3.890;2023-07-31T02:05:20;17.40;85.00
81136;DHT22;70622;50.886;3.890;2023-07-31T02:07:46;17.40;84.90
81136;DHT22;70622;50.886;3.890;2023-07-31T02:10:12;17.40;84.90
81136;DHT22;70622;50.886;3.890;2023-07-31T02:12:37;17.40;85.00
81136;DHT22;70622;50.886;3.890;2023-07-31T02:15:03;17.50;85.00
81136;DHT22;70622;50.886;3.890;2023-07-31T02:17:29;17.50;84.60
81136;DHT22;70622;50.886;3.890;2023-07-31T02:19:54;17.50;84.70
81136;DHT22;70622;50.886;3.890;2023-07-31T02:22:20;17.50;85.00
81136;DHT22;70622;50.886;3.890;2023-07-31T02:24:45;17.50;84.90
81136;DHT22;70622;50.886;3.890;2023-07-31T02:27:11;17.50;84.90
81136;DHT22;70622;50.886;3.890;2023-07-31T02:29:37;17.40;84.90
81136;DHT22;70622;50.886;3.890;2023-07-31T02:32:02;17.50;85.20
81136;DHT22;70622;50.886;3.890;2023-07-31T02:34:28;17.40;85.40
81136;DHT22;70622;50.886;3.890;2023-07-31T02:36:53;17.40;85.80
81136;DHT22;70622;50.886;3.890;2023-07-31T02:39:19;17.50;85.90
81136;DHT22;70622;50.886;3.890;2023-07-31T02:41:44;17.40;86.40
81136;DHT22;70622;50.886;3.890;2023-07-31T02:44:10;17.40;86.40
81136;DHT22;70622;50.886;3.890;2023-07-31T02:46:38;17.40;86.60
81136;DHT22;70622;50.886;3.890;2023-07-31T02:49:03;17.40;86.90
81136;DHT22;70622;50.886;3.890;2023-07-31T02:51:29;17.40;87.00
81136;DHT22;70622;50.886;3.890;2023-07-31T02:53:54;17.40;86.80
81136;DHT22;70622;50.886;3.890;2023-07-31T02:56:20;17.40;87.00
81136;DHT22;70622;50.886;3.890;2023-07-31T02:58:45;17.40;87.00
81136;DHT22;70622;50.886;3.890;2023-07-31T03:01:11;17.40;86.90
81136;DHT22;70622;50.886;3.890;2023-07-31T03:03:36;17.40;87.10
81136;DHT22;70622;50.886;3.890;2023-07-31T03:06:02;17.30;87.40
81136;DHT22;70622;50.886;3.890;2023-07-31T03:08:27;17.40;87.90
81136;DHT22;70622;50.886;3.890;2023-07-31T03:10:53;17.30;87.80
81136;DHT22;70622;50.886;3.890;2023-07-31T03:13:18;17.40;87.80
81136;DHT22;70622;50.886;3.890;2023-07-31T03:15:44;17.40;87.20
81136;DHT22;70622;50.886;3.890;2023-07-31T03:18:10;17.50;86.90
81136;DHT22;70622;50.886;3.890;2023-07-31T03:20:35;17.40;87.00
81136;DHT22;70622;50.886;3.890;2023-07-31T03:23:01;17.40;86.80
81136;DHT22;70622;50.886;3.890;2023-07-31T03:25:26;17.40;87.60
81136;DHT22;70622;50.886;3.890;2023-07-31T03:27:52;17.40;87.50
81136;DHT22;70622;50.886;3.890;2023-07-31T03:30:17;17.30;88.80
81136;DHT22;70622;50.886;3.890;2023-07-31T03:32:43;17.30;88.90
81136;DHT22;70622;50.886;3.890;2023-07-31T03:35:08;17.20;89.30
81136;DHT22;70622;50.886;3.890;2023-07-31T03:37:34;17.10;89.40
81136;DHT22;70622;50.886;3.890;2023-07-31T03:40:00;17.20;89.80
81136;DHT22;70622;50.886;3.890;2023-07-31T03:42:25;17.00;90.10
81136;DHT22;70622;50.886;3.890;2023-07-31T03:44:51;17.10;90.40
81136;DHT22;70622;50.886;3.890;2023-07-31T03:47:16;17.00;90.50
81136;DHT22;70622;50.886;3.890;2023-07-31T03:49:42;17.00;90.80
81136;DHT22;70622;50.886;3.890;2023-07-31T03:52:07;17.00;91.10
81136;DHT22;70622;50.886;3.890;2023-07-31T03:54:33;17.00;91.10
81136;DHT22;70622;50.886;3.890;2023-07-31T03:56:59;17.00;91.10
81136;DHT22;70622;50.886;3.890;2023-07-31T03:59:24;17.00;91.10
81136;DHT22;70622;50.886;3.890;2023-07-31T04:01:50;17.00;91.10
81136;DHT22;70622;50.886;3.890;2023-07-31T04:04:15;17.00;91.20
81136;DHT22;70622;50.886;3.890;2023-07-31T04:06:41;17.00;90.90
81136;DHT22;70622;50.886;3.890;2023-07-31T04:09:06;17.00;90.70
81136;DHT22;70622;50.886;3.890;2023-07-31T04:11:32;17.00;90.70
81136;DHT22;70622;50.886;3.890;2023-07-31T04:13:57;17.00;90.70
81136;DHT22;70622;50.886;3.890;2023-07-31T04:16:23;17.00;90.60
81136;DHT22;70622;50.886;3.890;2023-07-31T04:18:48;17.00;90.70
81136;DHT22;70622;50.886;3.890;2023-07-31T04:21:14;17.10;90.60
81136;DHT22;70622;50.886;3.890;2023-07-31T04:23:39;17.10;90.50
81136;DHT22;70622;50.886;3.890;2023-07-31T04:26:05;17.10;90.60
81136;DHT22;70622;50.886;3.890;2023-07-31T04:28:31;17.00;90.70
81136;DHT22;70622;50.886;3.890;2023-07-31T04:30:57;17.00;90.70
81136;DHT22;70622;50.886;3.890;2023-07-31T04:33:22;17.20;90.80
81136;DHT22;70622;50.886;3.890;2023-07-31T04:35:50;17.10;90.70
81136;DHT22;70622;50.886;3.890;2023-07-31T04:38:18;17.20;90.70
81136;DHT22;70622;50.886;3.890;2023-07-31T04:40:43;17.20;90.70
81136;DHT22;70622;50.886;3.890;2023-07-31T04:43:09;17.20;90.70
81136;DHT22;70622;50.886;3.890;2023-07-31T04:45:34;17.20;90.40
81136;DHT22;70622;50.886;3.890;2023-07-31T04:48:00;17.20;90.60
81136;DHT22;70622;50.886;3.890;2023-07-31T04:50:25;17.20;90.70
81136;DHT22;70622;50.886;3.890;2023-07-31T04:52:51;17.10;90.50
81136;DHT22;70622;50.886;3.890;2023-07-31T04:55:17;17.00;90.70
81136;DHT22;70622;50.886;3.890;2023-07-31T04:57:43;17.00;90.90
81136;DHT22;70622;50.886;3.890;2023-07-31T05:00:09;16.90;90.70
81136;DHT22;70622;50.886;3.890;2023-07-31T05:02:34;17.00;90.80
81136;DHT22;70622;50.886;3.890;2023-07-31T05:05:00;16.80;91.00
81136;DHT22;70622;50.886;3.890;2023-07-31T05:07:25;16.90;91.20
81136;DHT22;70622;50.886;3.890;2023-07-31T05:09:51;16.90;91.40
81136;DHT22;70622;50.886;3.890;2023-07-31T05:12:16;16.80;91.30
81136;DHT22;70622;50.886;3.890;2023-07-31T05:14:42;16.80;91.30
81136;DHT22;70622;50.886;3.890;2023-07-31T05:17:07;16.70;91.30
81136;DHT22;70622;50.886;3.890;2023-07-31T05:19:33;16.80;91.30
81136;DHT22;70622;50.886;3.890;2023-07-31T05:21:58;16.80;91.30
81136;DHT22;70622;50.886;3.890;2023-07-31T05:24:24;16.80;91.10
81136;DHT22;70622;50.886;3.890;2023-07-31T05:26:50;16.90;91.10
81136;DHT22;70622;50.886;3.890;2023-07-31T05:29:15;16.90;91.00
81136;DHT22;70622;50.886;3.890;2023-07-31T05:31:41;16.80;90.90
81136;DHT22;70622;50.886;3.890;2023-07-31T05:34:07;16.90;91.00
81136;DHT22;70622;50.886;3.890;2023-07-31T05:36:32;16.90;90.90
81136;DHT22;70622;50.886;3.890;2023-07-31T05:38:58;16.90;91.00
81136;DHT22;70622;50.886;3.890;2023-07-31T05:41:23;17.00;90.70
81136;DHT22;70622;50.886;3.890;2023-07-31T05:43:49;17.10;90.60
81136;DHT22;70622;50.886;3.890;2023-07-31T05:46:14;17.10;90.50
81136;DHT22;70622;50.886;3.890;2023-07-31T05:48:40;17.10;90.40
81136;DHT22;70622;50.886;3.890;2023-07-31T05:51:05;17.00;90.30
81136;DHT22;70622;50.886;3.890;2023-07-31T05:53:32;17.10;90.20
81136;DHT22;70622;50.886;3.890;2023-07-31T05:55:57;17.10;90.00
81136;DHT22;70622;50.886;3.890;2023-07-31T05:58:23;17.10;89.90
81136;DHT22;70622;50.886;3.890;2023-07-31T06:00:48;17.00;90.20
81136;DHT22;70622;50.886;3.890;2023-07-31T06:03:14;17.00;90.20
81136;DHT22;70622;50.886;3.890;2023-07-31T06:05:40;17.10;90.20
81136;DHT22;70622;50.886;3.890;2023-07-31T06:08:05;17.10;90.10
81136;DHT22;70622;50.886;3.890;2023-07-31T06:10:31;17.10;90.10
81136;DHT22;70622;50.886;3.890;2023-07-31T06:12:56;17.20;89.70
81136;DHT22;70622;50.886;3.890;2023-07-31T06:15:22;17.30;89.00
81136;DHT22;70622;50.886;3.890;2023-07-31T06:17:48;17.30;89.30
81136;DHT22;70622;50.886;3.890;2023-07-31T06:20:13;17.30;88.90
81136;DHT22;70622;50.886;3.890;2023-07-31T06:22:39;17.30;88.60
81136;DHT22;70622;50.886;3.890;2023-07-31T06:25:04;17.30;88.70
81136;DHT22;70622;50.886;3.890;2023-07-31T06:27:30;17.30;88.70
81136;DHT22;70622;50.886;3.890;2023-07-31T06:29:56;17.40;87.90
81136;DHT22;70622;50.886;3.890;2023-07-31T06:32:21;17.40;87.70
81136;DHT22;70622;50.886;3.890;2023-07-31T06:34:47;17.40;87.50
81136;DHT22;70622;50.886;3.890;2023-07-31T06:37:13;17.60;86.70
81136;DHT22;70622;50.886;3.890;2023-07-31T06:39:38;17.70;86.30
81136;DHT22;70622;50.886;3.890;2023-07-31T06:42:04;17.90;86.10
81136;DHT22;70622;50.886;3.890;2023-07-31T06:44:29;17.90;85.50
81136;DHT22;70622;50.886;3.890;2023-07-31T06:46:55;18.00;86.10
81136;DHT22;70622;50.886;3.890;2023-07-31T06:49:20;18.10;84.20
81136;DHT22;70622;50.886;3.890;2023-07-31T06:51:46;18.10;83.20
81136;DHT22;70622;50.886;3.890;2023-07-31T06:54:11;18.20;83.10
81136;DHT22;70622;50.886;3.890;2023-07-31T06:56:37;18.20;82.80
81136;DHT22;70622;50.886;3.890;2023-07-31T06:59:03;18.20;83.30
81136;DHT22;70622;50.886;3.890;2023-07-31T07:01:28;18.20;82.80
81136;DHT22;70622;50.886;3.890;2023-07-31T07:03:54;18.10;83.30
81136;DHT22;70622;50.886;3.890;2023-07-31T07:06:19;18.10;83.30
81136;DHT22;70622;50.886;3.890;2023-07-31T07:08:45;17.90;82.50
81136;DHT22;70622;50.886;3.890;2023-07-31T07:11:10;18.10;83.10
81136;DHT22;70622;50.886;3.890;2023-07-31T07:13:36;17.90;82.90
81136;DHT22;70622;50.886;3.890;2023-07-31T07:16:02;18.00;83.20
81136;DHT22;70622;50.886;3.890;2023-07-31T07:18:27;18.00;83.30
81136;DHT22;70622;50.886;3.890;2023-07-31T07:20:53;18.00;83.10
81136;DHT22;70622;50.886;3.890;2023-07-31T07:23:19;18.10;82.70
81136;DHT22;70622;50.886;3.890;2023-07-31T07:25:46;18.00;82.60
81136;DHT22;70622;50.886;3.890;2023-07-31T07:28:12;18.10;81.90
81136;DHT22;70622;50.886;3.890;2023-07-31T07:30:37;18.20;82.10
81136;DHT22;70622;50.886;3.890;2023-07-31T07:33:03;18.20;81.40
81136;DHT22;70622;50.886;3.890;2023-07-31T07:35:28;18.30;81.40
81136;DHT22;70622;50.886;3.890;2023-07-31T07:37:54;18.30;80.70
81136;DHT22;70622;50.886;3.890;2023-07-31T07:40:20;18.30;80.60
81136;DHT22;70622;50.886;3.890;2023-07-31T07:42:46;18.40;80.50
81136;DHT22;70622;50.886;3.890;2023-07-31T07:45:12;18.40;79.70
81136;DHT22;70622;50.886;3.890;2023-07-31T07:47:38;18.40;79.60
81136;DHT22;70622;50.886;3.890;2023-07-31T07:50:03;18.50;79.80
81136;DHT22;70622;50.886;3.890;2023-07-31T07:52:29;18.60;80.00
81136;DHT22;70622;50.886;3.890;2023-07-31T07:54:54;18.60;80.50
81136;DHT22;70622;50.886;3.890;2023-07-31T07:57:20;18.60;80.90
81136;DHT22;70622;50.886;3.890;2023-07-31T07:59:46;18.50;81.10
81136;DHT22;70622;50.886;3.890;2023-07-31T08:02:11;18.40;81.00
81136;DHT22;70622;50.886;3.890;2023-07-31T08:04:37;18.40;80.80
81136;DHT22;70622;50.886;3.890;2023-07-31T08:07:02;18.70;80.30
81136;DHT22;70622;50.886;3.890;2023-07-31T08:09:28;18.70;80.00
81136;DHT22;70622;50.886;3.890;2023-07-31T08:11:53;18.80;80.40
81136;DHT22;70622;50.886;3.890;2023-07-31T08:14:19;18.70;79.60
81136;DHT22;70622;50.886;3.890;2023-07-31T08:16:45;18.80;79.90
81136;DHT22;70622;50.886;3.890;2023-07-31T08:19:11;19.20;78.90
81136;DHT22;70622;50.886;3.890;2023-07-31T08:21:36;19.40;76.80
81136;DHT22;70622;50.886;3.890;2023-07-31T08:24:02;19.40;77.30
81136;DHT22;70622;50.886;3.890;2023-07-31T08:26:27;19.30;77.10
81136;DHT22;70622;50.886;3.890;2023-07-31T08:28:53;19.30;77.60
81136;DHT22;70622;50.886;3.890;2023-07-31T08:31:18;19.20;77.70
81136;DHT22;70622;50.886;3.890;2023-07-31T08:33:44;19.20;77.30
81136;DHT22;70622;50.886;3.890;2023-07-31T08:36:10;19.10;77.50
81136;DHT22;70622;50.886;3.890;2023-07-31T08:38:35;19.00;78.00
81136;DHT22;70622;50.886;3.890;2023-07-31T08:41:02;19.00;78.50
81136;DHT22;70622;50.886;3.890;2023-07-31T08:43:28;18.90;78.60
81136;DHT22;70622;50.886;3.890;2023-07-31T08:45:54;18.80;79.50
81136;DHT22;70622;50.886;3.890;2023-07-31T08:48:21;18.70;79.20
81136;DHT22;70622;50.886;3.890;2023-07-31T08:50:47;18.90;79.10
81136;DHT22;70622;50.886;3.890;2023-07-31T08:53:13;19.00;78.40
81136;DHT22;70622;50.886;3.890;2023-07-31T08:55:38;19.30;77.70
81136;DHT22;70622;50.886;3.890;2023-07-31T08:58:05;19.30;77.40
81136;DHT22;70622;50.886;3.890;2023-07-31T09:00:34;19.50;77.00
81136;DHT22;70622;50.886;3.890;2023-07-31T09:03:08;19.50;77.50
81136;DHT22;70622;50.886;3.890;2023-07-31T09:05:34;19.40;78.10
81136;DHT22;70622;50.886;3.890;2023-07-31T09:08:00;19.50;77.70
81136;DHT22;70622;50.886;3.890;2023-07-31T09:10:27;19.60;77.20
81136;DHT22;70622;50.886;3.890;2023-07-31T09:12:52;19.70;76.00
81136;DHT22;70622;50.886;3.890;2023-07-31T09:15:18;19.50;76.50
81136;DHT22;70622;50.886;3.890;2023-07-31T09:17:44;19.40;77.10
81136;DHT22;70622;50.886;3.890;2023-07-31T09:20:17;19.30;77.70
81136;DHT22;70622;50.886;3.890;2023-07-31T09:22:43;19.20;78.30
81136;DHT22;70622;50.886;3.890;2023-07-31T09:25:23;19.20;79.40
81136;DHT22;70622;50.886;3.890;2023-07-31T09:27:49;19.10;80.00
81136;DHT22;70622;50.886;3.890;2023-07-31T09:30:16;19.00;81.70
81136;DHT22;70622;50.886;3.890;2023-07-31T09:32:42;19.10;82.20
81136;DHT22;70622;50.886;3.890;2023-07-31T09:35:18;18.80;82.40
81136;DHT22;70622;50.886;3.890;2023-07-31T09:37:47;18.70;83.50
81136;DHT22;70622;50.886;3.890;2023-07-31T09:40:14;18.70;83.70
81136;DHT22;70622;50.886;3.890;2023-07-31T09:42:50;18.60;84.50
81136;DHT22;70622;50.886;3.890;2023-07-31T09:45:15;18.70;84.00
81136;DHT22;70622;50.886;3.890;2023-07-31T09:47:47;18.80;83.30
81136;DHT22;70622;50.886;3.890;2023-07-31T09:50:13;18.80;84.00
81136;DHT22;70622;50.886;3.890;2023-07-31T09:52:39;18.90;84.70
81136;DHT22;70622;50.886;3.890;2023-07-31T09:55:05;18.70;85.90
81136;DHT22;70622;50.886;3.890;2023-07-31T09:57:31;18.70;84.90
81136;DHT22;70622;50.886;3.890;2023-07-31T09:59:56;18.80;84.60
81136;DHT22;70622;50.886;3.890;2023-07-31T10:02:23;18.80;84.30
81136;DHT22;70622;50.886;3.890;2023-07-31T10:04:49;19.00;83.50
81136;DHT22;70622;50.886;3.890;2023-07-31T10:07:16;19.10;83.30
81136;DHT22;70622;50.886;3.890;2023-07-31T10:09:42;19.20;82.40
81136;DHT22;70622;50.886;3.890;2023-07-31T10:12:08;19.30;82.00
81136;DHT22;70622;50.886;3.890;2023-07-31T10:14:35;19.30;82.20
81136;DHT22;70622;50.886;3.890;2023-07-31T10:17:01;19.40;81.80
81136;DHT22;70622;50.886;3.890;2023-07-31T10:19:27;19.50;81.30
81136;DHT22;70622;50.886;3.890;2023-07-31T10:21:54;19.40;81.40
81136;DHT22;70622;50.886;3.890;2023-07-31T10:24:22;19.60;81.90
81136;DHT22;70622;50.886;3.890;2023-07-31T10:26:48;19.70;80.50
81136;DHT22;70622;50.886;3.890;2023-07-31T10:29:15;20.00;79.80
81136;DHT22;70622;50.886;3.890;2023-07-31T10:31:41;20.10;79.60
81136;DHT22;70622;50.886;3.890;2023-07-31T10:34:07;20.10;79.50
81136;DHT22;70622;50.886;3.890;2023-07-31T10:36:32;19.70;80.20
81136;DHT22;70622;50.886;3.890;2023-07-31T10:38:58;19.90;80.30
81136;DHT22;70622;50.886;3.890;2023-07-31T10:41:28;20.00;79.70
81136;DHT22;70622;50.886;3.890;2023-07-31T10:43:56;20.20;78.80
81136;DHT22;70622;50.886;3.890;2023-07-31T10:46:22;20.20;78.40
81136;DHT22;70622;50.886;3.890;2023-07-31T10:48:47;20.50;77.90
81136;DHT22;70622;50.886;3.890;2023-07-31T10:51:22;20.40;78.10
81136;DHT22;70622;50.886;3.890;2023-07-31T10:53:48;20.20;78.60
81136;DHT22;70622;50.886;3.890;2023-07-31T10:56:13;20.20;79.80
81136;DHT22;70622;50.886;3.890;2023-07-31T10:58:44;20.20;79.80
81136;DHT22;70622;50.886;3.890;2023-07-31T11:01:10;20.10;79.20
81136;DHT22;70622;50.886;3.890;2023-07-31T11:06:17;20.00;80.40
81136;DHT22;70622;50.886;3.890;2023-07-31T11:08:44;20.00;80.80
81136;DHT22;70622;50.886;3.890;2023-07-31T11:11:11;19.90;82.00
81136;DHT22;70622;50.886;3.890;2023-07-31T11:13:44;19.80;82.50
81136;DHT22;70622;50.886;3.890;2023-07-31T11:16:10;19.70;82.80
81136;DHT22;70622;50.886;3.890;2023-07-31T11:18:38;19.60;82.70
81136;DHT22;70622;50.886;3.890;2023-07-31T11:21:03;19.70;82.70
81136;DHT22;70622;50.886;3.890;2023-07-31T11:23:29;19.60;84.00
81136;DHT22;70622;50.886;3.890;2023-07-31T11:25:57;19.70;84.60
81136;DHT22;70622;50.886;3.890;2023-07-31T11:28:24;19.80;83.90
81136;DHT22;70622;50.886;3.890;2023-07-31T11:30:50;20.00;82.50
81136;DHT22;70622;50.886;3.890;2023-07-31T11:33:15;20.20;81.80
81136;DHT22;70622;50.886;3.890;2023-07-31T11:35:45;20.20;81.30
81136;DHT22;70622;50.886;3.890;2023-07-31T11:38:12;20.40;81.10
81136;DHT22;70622;50.886;3.890;2023-07-31T11:40:44;20.30;80.80
81136;DHT22;70622;50.886;3.890;2023-07-31T11:43:10;20.30;81.40
81136;DHT22;70622;50.886;3.890;2023-07-31T11:45:36;20.40;81.70
81136;DHT22;70622;50.886;3.890;2023-07-31T11:48:02;20.50;79.60
81136;DHT22;70622;50.886;3.890;2023-07-31T11:50:28;20.60;79.70
81136;DHT22;70622;50.886;3.890;2023-07-31T11:52:57;20.70;79.50
81136;DHT22;70622;50.886;3.890;2023-07-31T11:55:24;20.70;79.50
81136;DHT22;70622;50.886;3.890;2023-07-31T11:57:51;20.70;78.80
81136;DHT22;70622;50.886;3.890;2023-07-31T12:00:16;20.70;78.30
81136;DHT22;70622;50.886;3.890;2023-07-31T12:02:42;20.80;78.40
81136;DHT22;70622;50.886;3.890;2023-07-31T12:05:11;20.70;78.20
81136;DHT22;70622;50.886;3.890;2023-07-31T12:07:49;20.90;78.10
81136;DHT22;70622;50.886;3.890;2023-07-31T12:10:24;20.80;77.50
81136;DHT22;70622;50.886;3.890;2023-07-31T12:13:01;20.90;77.00
81136;DHT22;70622;50.886;3.890;2023-07-31T12:15:34;20.80;76.80
81136;DHT22;70622;50.886;3.890;2023-07-31T12:18:00;20.40;78.10
81136;DHT22;70622;50.886;3.890;2023-07-31T12:20:25;20.40;78.70
81136;DHT22;70622;50.886;3.890;2023-07-31T12:22:51;20.60;78.40
81136;DHT22;70622;50.886;3.890;2023-07-31T12:25:17;20.60;78.10
81136;DHT22;70622;50.886;3.890;2023-07-31T12:27:44;20.60;78.90
81136;DHT22;70622;50.886;3.890;2023-07-31T12:32:55;20.30;80.80
81136;DHT22;70622;50.886;3.890;2023-07-31T12:35:21;20.10;81.70
81136;DHT22;70622;50.886;3.890;2023-07-31T12:37:46;20.00;82.10
81136;DHT22;70622;50.886;3.890;2023-07-31T12:40:12;19.80;82.70
81136;DHT22;70622;50.886;3.890;2023-07-31T12:42:38;19.80;84.20
81136;DHT22;70622;50.886;3.890;2023-07-31T12:45:03;19.70;85.10
81136;DHT22;70622;50.886;3.890;2023-07-31T12:47:29;19.70;86.00
81136;DHT22;70622;50.886;3.890;2023-07-31T12:49:55;19.50;86.50
81136;DHT22;70622;50.886;3.890;2023-07-31T12:52:20;19.40;87.00
81136;DHT22;70622;50.886;3.890;2023-07-31T12:54:46;19.20;88.50
81136;DHT22;70622;50.886;3.890;2023-07-31T12:57:11;19.00;88.80
81136;DHT22;70622;50.886;3.890;2023-07-31T12:59:37;18.90;89.80
81136;DHT22;70622;50.886;3.890;2023-07-31T13:02:03;18.80;89.80
81136;DHT22;70622;50.886;3.890;2023-07-31T13:04:28;18.80;90.10
81136;DHT22;70622;50.886;3.890;2023-07-31T13:06:54;18.70;89.70
81136;DHT22;70622;50.886;3.890;2023-07-31T13:09:20;18.70;90.10
81136;DHT22;70622;50.886;3.890;2023-07-31T13:11:45;18.70;90.10
81136;DHT22;70622;50.886;3.890;2023-07-31T13:14:11;18.60;90.10
81136;DHT22;70622;50.886;3.890;2023-07-31T13:16:37;18.50;90.40
81136;DHT22;70622;50.886;3.890;2023-07-31T13:19:03;18.50;90.50
81136;DHT22;70622;50.886;3.890;2023-07-31T13:21:29;18.50;90.50
81136;DHT22;70622;50.886;3.890;2023-07-31T13:23:54;18.50;90.70
81136;DHT22;70622;50.886;3.890;2023-07-31T13:26:23;18.50;90.70
81136;DHT22;70622;50.886;3.890;2023-07-31T13:28:48;18.40;90.90
81136;DHT22;70622;50.886;3.890;2023-07-31T13:31:14;18.40;90.70
81136;DHT22;70622;50.886;3.890;2023-07-31T13:33:39;18.50;90.50
81136;DHT22;70622;50.886;3.890;2023-07-31T13:36:05;18.40;90.60
81136;DHT22;70622;50.886;3.890;2023-07-31T13:38:30;18.30;90.60
81136;DHT22;70622;50.886;3.890;2023-07-31T13:40:56;18.40;90.70
81136;DHT22;70622;50.886;3.890;2023-07-31T13:43:21;18.40;90.60
81136;DHT22;70622;50.886;3.890;2023-07-31T13:45:47;18.40;90.60
81136;DHT22;70622;50.886;3.890;2023-07-31T13:48:12;18.50;90.60
81136;DHT22;70622;50.886;3.890;2023-07-31T13:50:38;18.50;90.80
81136;DHT22;70622;50.886;3.890;2023-07-31T13:53:03;18.50;90.50
81136;DHT22;70622;50.886;3.890;2023-07-31T13:55:29;18.50;90.60
81136;DHT22;70622;50.886;3.890;2023-07-31T13:57:54;18.60;90.90
81136;DHT22;70622;50.886;3.890;2023-07-31T14:00:20;18.70;90.30
81136;DHT22;70622;50.886;3.890;2023-07-31T14:02:46;18.70;90.30
81136;DHT22;70622;50.886;3.890;2023-07-31T14:05:11;18.80;90.40
81136;DHT22;70622;50.886;3.890;2023-07-31T14:07:37;18.90;90.20
81136;DHT22;70622;50.886;3.890;2023-07-31T14:10:02;19.00;89.90
81136;DHT22;70622;50.886;3.890;2023-07-31T14:12:29;18.90;89.80
81136;DHT22;70622;50.886;3.890;2023-07-31T14:14:55;18.80;89.80
81136;DHT22;70622;50.886;3.890;2023-07-31T14:17:21;18.80;90.20
81136;DHT22;70622;50.886;3.890;2023-07-31T14:19:46;19.00;90.10
81136;DHT22;70622;50.886;3.890;2023-07-31T14:22:12;18.90;89.90
81136;DHT22;70622;50.886;3.890;2023-07-31T14:24:38;18.90;90.40
81136;DHT22;70622;50.886;3.890;2023-07-31T14:27:03;18.80;90.40
81136;DHT22;70622;50.886;3.890;2023-07-31T14:29:29;18.80;90.40
81136;DHT22;70622;50.886;3.890;2023-07-31T14:31:55;18.70;90.50
81136;DHT22;70622;50.886;3.890;2023-07-31T14:34:20;18.60;90.60
81136;DHT22;70622;50.886;3.890;2023-07-31T14:36:46;18.50;90.80
81136;DHT22;70622;50.886;3.890;2023-07-31T14:39:11;18.60;90.60
81136;DHT22;70622;50.886;3.890;2023-07-31T14:41:37;18.60;90.40
81136;DHT22;70622;50.886;3.890;2023-07-31T14:44:03;18.50;90.50
81136;DHT22;70622;50.886;3.890;2023-07-31T14:46:28;18.60;90.80
81136;DHT22;70622;50.886;3.890;2023-07-31T14:48:54;18.50;90.90
81136;DHT22;70622;50.886;3.890;2023-07-31T14:51:19;18.50;91.00
81136;DHT22;70622;50.886;3.890;2023-07-31T14:53:45;18.50;90.70
81136;DHT22;70622;50.886;3.890;2023-07-31T14:56:12;18.60;90.50
81136;DHT22;70622;50.886;3.890;2023-07-31T14:58:37;18.50;90.80
81136;DHT22;70622;50.886;3.890;2023-07-31T15:01:03;18.60;90.90
81136;DHT22;70622;50.886;3.890;2023-07-31T15:03:28;18.60;90.90
81136;DHT22;70622;50.886;3.890;2023-07-31T15:05:54;18.80;90.60
81136;DHT22;70622;50.886;3.890;2023-07-31T15:08:19;18.80;90.70
81136;DHT22;70622;50.886;3.890;2023-07-31T15:10:45;18.60;90.70
81136;DHT22;70622;50.886;3.890;2023-07-31T15:13:11;18.70;90.80
81136;DHT22;70622;50.886;3.890;2023-07-31T15:15:36;18.70;90.60
81136;DHT22;70622;50.886;3.890;2023-07-31T15:18:02;18.70;90.60
81136;DHT22;70622;50.886;3.890;2023-07-31T15:20:28;18.70;90.80
81136;DHT22;70622;50.886;3.890;2023-07-31T15:22:55;18.60;90.90
81136;DHT22;70622;50.886;3.890;2023-07-31T15:25:20;18.70;90.60
81136;DHT22;70622;50.886;3.890;2023-07-31T15:27:46;18.70;90.60
81136;DHT22;70622;50.886;3.890;2023-07-31T15:30:11;18.60;91.00
81136;DHT22;70622;50.886;3.890;2023-07-31T15:32:37;18.50;91.10
81136;DHT22;70622;50.886;3.890;2023-07-31T15:35:03;18.40;91.20